Aviation Digital Data Service (ADDS)

Output produced by METARs form (1938 UTC 18 June 2019)
found at http://www.aviationweather.gov/metar/data/
 
KADF 181930Z AUTO 28005KT 1 3/4SM HZ BKN085 30/21 A2989 RMK AO2 VIS 1/2V5
KADF 181736Z 1818/1918 26005KT P6SM SCT035 BKN250 
     TEMPO 1818/1821 BKN035 
     FM182100 23006KT P6SM BKN050 
     FM190000 VRB03KT P6SM BKN250 
     FM191000 VRB03KT 4SM BR BKN100 OVC250
       
KBVX 181856Z AUTO 26007KT 10SM OVC070 29/22 A2989 RMK AO2 SLP116 T02890217
KSUZ 181935Z AUTO 28003KT 10SM OVC085 29/19 A2989 RMK A01
KVBT 181856Z AUTO 00000KT 10SM FEW037 SCT044 BKN050 28/19 A2995 RMK AO2 SLP132 T02780189
KBYH 181859Z 18004KT 10SM SCT013 SCT023 BKN090 30/22 A2988
KHKA 181853Z AUTO 22006KT 10SM FEW022 29/21 A2989 RMK AO2 SLP117 T02890211 $
KCDH 181935Z AUTO 10006KT 10SM BKN080 32/19 A2988 RMK AO2
KCCA 181915Z AUTO VRB03KT 10SM SCT080 29/21 A2989 RMK AO2
K4M9 181935Z AUTO VRB03KT SCT031 BKN037 30/23 A2987 RMK AO2 PWINO
KDEQ 181853Z AUTO VRB05KT 10SM CLR 31/22 A2988 RMK AO2 SLP113 T03060217
KELD 181853Z AUTO 30006KT 10SM SCT039 SCT060 BKN085 29/20 A2991 RMK AO2 SLP123 T02890200
KELD 181743Z 1818/1918 26008KT P6SM SCT040 BKN080 
     FM190100 00000KT P6SM FEW250 
     TEMPO 1910/1913 3SM BR 
     FM191400 21008KT P6SM SCT040 
     TEMPO 1914/1916 BKN020
       
KFYV 181853Z 00000KT 10SM FEW038 28/20 A2993 RMK AO2 SLP121 T02830200
KFYV 181720Z 1818/1918 30003KT P6SM SCT040 BKN250 
     FM191000 17005KT P6SM VCTS OVC050CB 
     TEMPO 1910/1914 VRB15G25KT 1SM +TSRA BKN040CB 
     FM191400 20006KT 5SM -RA BR OVC100 
     FM191600 30006KT P6SM OVC015
       
KXNA 181853Z 00000KT 10SM SCT034 SCT045 28/17 A2993 RMK AO2 SLP121 T02830172
KXNA 181720Z 1818/1918 30003KT P6SM SCT035 BKN250 
     FM191000 17005KT P6SM VCTS OVC050CB 
     TEMPO 1910/1914 VRB15G25KT 1SM +TSRA BKN040CB 
     FM191400 20006KT 5SM -RA BR OVC100 
     FM191600 30006KT P6SM OVC015
       
KFLP 181856Z AUTO VRB03KT 10SM CLR 27/21 A2991 RMK AO2 SLP120 T02720206
KFSM 181853Z 24006KT 10SM SCT048 BKN060 30/21 A2989 RMK AO2 SLP115 T03000206
KFSM 181720Z 1818/1918 VRB05KT P6SM FEW024 
     FM191000 17005KT P6SM VCTS OVC050CB 
     TEMPO 1910/1914 VRB15G25KT 1SM +TSRA BKN040CB 
     FM191400 20006KT 5SM -RA BR OVC100 
     FM191600 30006KT P6SM OVC015
       
KHRO 181853Z AUTO 06005KT 10SM FEW034 SCT045 28/20 A2994 RMK AO2 SLP122 T02780200
KHRO 181736Z 1818/1918 VRB05KT P6SM SCT030 BKN050 
     TEMPO 1818/1821 BKN030 
     FM190000 VRB04KT P6SM SCT100 BKN250 
     PROB30 1910/1913 2SM TSRA BKN040CB 
     FM191400 20008KT 6SM -SHRA OVC025
       
KHOT 181853Z AUTO 27005KT 10SM BKN080 OVC090 29/19 A2991 RMK AO2 SLP122 T02940194
KHOT 181736Z 1818/1918 26005KT P6SM SCT030 BKN250 
     TEMPO 1818/1821 BKN030 
     FM182100 24006KT P6SM BKN050 
     FM190000 24003KT P6SM BKN250 
     FM191200 VRB03KT 5SM BR BKN100 OVC250
       
KJBR 181853Z AUTO 10SM -RA FEW031 SCT042 OVC090 23/20 A2988 RMK AO2 RAB29 SLP114 P0000 T02330200
KJBR 181732Z 1818/1918 21005KT P6SM VCSH SCT030 BKN080 
     FM182200 22005KT P6SM VCTS SCT030CB BKN100 
     FM190300 21003KT P6SM SCT020 BKN100 
     FM191400 22011KT P6SM SCT040 BKN120
       
KLIT 181853Z 31007KT 10SM BKN045 BKN060 30/19 A2988 RMK AO2 SLP118 T03000194
KLIT 181736Z 1818/1918 25006KT P6SM BKN035 
     TEMPO 1818/1821 SCT035 BKN050 
     FM190000 VRB03KT P6SM SCT100 BKN250 
     FM191200 VRB05KT 6SM BR BKN100
       
KMEZ 181915Z AUTO 26004KT 10SM SCT036 SCT044 31/20 A2993 RMK AO2
KLLQ 181853Z AUTO VRB05KT 10SM SCT040 BKN047 BKN085 31/21 A2989 RMK AO2 SLP117 T03060206
KLLQ 181736Z 1818/1918 24005KT P6SM SCT025 BKN045 
     FM190000 23003KT P6SM SCT100 BKN250 
     FM191200 24006KT P6SM BKN200
       
KBPK 181853Z AUTO 00000KT 10SM FEW031 27/21 A2990 RMK AO2 SLP116 T02720206
KBPK 181736Z 1818/1918 VRB05KT P6SM SCT022 BKN050 
     TEMPO 1818/1821 BKN022 
     FM190000 VRB04KT P6SM SCT100 BKN250 
     PROB30 1911/1914 2SM TSRA BKN040CB 
     FM191400 22008KT 6SM -SHRA OVC025
       
KM19 181856Z AUTO VRB03KT 10SM SCT090 29/18 A2988 RMK AO2 SLP119 T02890183
KPBF 181853Z AUTO 10SM BKN085 30/18 A2989 RMK AO2 SLP119 T03000183
KPBF 181736Z 1818/1918 30007KT P6SM SCT035 BKN050 
     FM190000 VRB03KT P6SM SCT100 BKN250 
     FM191200 23006KT P6SM BKN150
       
KROG 181858Z 00000KT 10SM BKN043 BKN050 28/18 A2994 RMK AO2 SLP124 T02780183 PNO $
KROG 181720Z 1818/1918 30003KT P6SM SCT040 BKN250 
     FM191000 17005KT P6SM VCTS OVC050CB 
     TEMPO 1910/1914 VRB15G25KT 1SM +TSRA BKN040CB 
     FM191400 20006KT 5SM -RA BR OVC100 
     FM191600 30006KT P6SM OVC015
       
KRUE 181853Z AUTO 24006KT 10SM FEW044 SCT065 BKN080 29/20 A2989 RMK AO2 SLP113 T02940200 TSNO
KSRC 181856Z AUTO VRB03KT 10SM OVC080 29/22 A2988 RMK AO2 SLP119 T02940217
KSLG 181856Z AUTO 10SM BKN038 BKN047 27/18 A2993 RMK AO2 SLP126 T02720183
KASG 181848Z 10004KT 10SM BKN034 BKN060 28/20 A2995
KSGT 181856Z AUTO 30005KT 10SM FEW060 BKN075 29/19 A2989 RMK AO2 SLP119 T02940189
KTXK 181853Z 26008KT 10SM SCT045 SCT050 BKN070 30/19 A2991 RMK AO2 SLP123 T03000194
KTXK 181743Z 1818/1918 27007KT P6SM SCT045 
     FM190100 20004KT P6SM SCT250 
     FM191300 24014G22KT P6SM SCT020 BKN040 
     TEMPO 1913/1916 22010KT OVC015
       
KARG 181856Z AUTO 00000KT 10SM BKN035 BKN050 30/21 A2988 RMK AO2 SLP115 T03000211
KAWM 181853Z AUTO 24005KT 10SM FEW023 FEW029 29/23 A2987 RMK AO2 SLP110 T02940228